Arcata Airport
KACV : now visible

Airfield :











YOU CAN JOIN US ON...

 
LOGIN :

Register | Disclaimer

   EN    FR    IT 

 









Legend :    VFR   Marginal VFR   IFR   Intensive IFR   Very Intensive IFR
Visi :
Ceiling :
>= 8 km
>= 3000ft
5 to 8 km
1000 to 3000 ft
1500m to 5 km
500 to 1000 ft
800 to 1500m
200 to 500 ft
< 800m
< 200 ft
Symbols :   Thunderstorms  Fog  Heavy snow  Heavy precipitations  Wind > 20 kt






- Airport Elevation : 221 ft
- IATA code : ACV


KACV - Arcata

CURRENT METAR :
  • 171324Z AUTO 00000KT 1/2SM R32/2200V4500FT FG VV001 04/04 A3027 RMK AO2 T00440039

EXPIRED METARs :
  • 171314Z AUTO 00000KT 1/4SM R32/1600VP6000FT FG VV001 05/04 A3027 RMK AO2 T00500044
  • 171253Z AUTO 00000KT 1/4SM R32/1200V1400FT FG VV001 06/05 A3027 RMK AO2 SLP258 T00610050
  • 171153Z AUTO 00000KT 1/4SM R32/1200V1400FT FG VV001 07/06 A3028 RMK AO2 SLP259 70050 T00670056 10089 20067 56007
  • 171123Z AUTO 34003KT 1/4SM R32/1000V1200FT FG VV002 07/06 A3028 RMK AO2 T00670061
  • 171053Z AUTO 00000KT 1/4SM R32/1000V1200FT FG VV001 07/07 A3029 RMK AO2 SLP262 T00720067

TAF KACV
Valid from the 17 at 12:00 until the 18 at 12:00 UTC


171142Z 1712/1812 07003KT 1/4SM FG OVC002
TEMPO 1712/1713 2SM BR
FM171400 07003KT 6SM BR SCT005
FM171700 35008KT P6SM FEW250
FM172100 33014KT P6SM FEW250
FM180300 04003KT P6SM SKC
FM180900 09003KT P6SM SKC



MET'MAP, your aeronautical weather chart ! - Copyright ORBIFLY December 2007 - Disclaimer

ORBIFLY MET'MAP TEAM :

Programming & Development : Alexandra Zaïnal
Concept & original design : Baudouin d'Aumeries
Assistance for programming : Marc-Olivier Méhu
Technical & hardware support : Manuel Goepfert

Contact : metmap@orbifly.com




SOURCES & CREDITS :

   NOAA       Earth
Advisory